West Chester, Iowa
Current Conditions -  °F | °C
As of 12:35 PM on Thursday 30 Oct 2014 (Local Time) from KAWG Reporting Station
Scattered Clouds Scattered Clouds  
Wind Chill: 12°   Ceiling: Unl
Heat Index: 12°   Visibility: 10mi
Dew Point:   Wind: 10mph
Humidity: 58%   Direction: 140°SE
Pressure: 30.04"   Gusts: NA
Location:  41.34°N, 91.82°W
Report Text: KAWG 301735Z AUTO 14009KT 10SM SCT080 SCT090 12/04 A3004 RMK AO2
Loading
Personal Weather Stations






























Interactive Weather Map
Tropical Storm Tracking
New forecast layout! Learn more

10-Day Weather Forecast

Advertisements
Track Severe Weather on mobile